Time;durP1;ratioP1;P1;durP2;ratioP2;P2;SDS_P1;SDS_P2;PMS_P1;PMS_P2;Temp;Humidity;BMP_temperature;BMP_pressure;BME280_temperature;BME280_humidity;BME280_pressure;Samples;Min_cycle;Max_cycle;Signal;HPM_P1;HPM_P2
2023/08/28 00:02:02;;;;;;;5.13;3.80;;;15.50;99.90;;;;;;4939747;29;20070;-70
2023/08/28 00:04:28;;;;;;;6.55;4.03;;;15.50;99.90;;;;;;4954595;29;20027;-71
2023/08/28 00:06:54;;;;;;;6.15;3.85;;;15.50;99.90;;;;;;4954600;29;20047;-71
2023/08/28 00:09:19;;;;;;;6.45;3.65;;;15.40;99.90;;;;;;4954132;28;20054;-71
2023/08/28 00:11:45;;;;;;;7.97;3.80;;;15.40;99.90;;;;;;4954802;29;20027;-70
2023/08/28 00:14:11;;;;;;;4.72;3.25;;;15.30;99.90;;;;;;4954385;29;20103;-71
2023/08/28 00:16:36;;;;;;;5.25;3.47;;;15.30;99.90;;;;;;4954351;29;20027;-71
2023/08/28 00:19:02;;;;;;;5.05;3.40;;;15.30;99.90;;;;;;4954313;29;20019;-71
2023/08/28 00:21:29;;;;;;;6.97;3.78;;;15.30;99.90;;;;;;4954159;29;20024;-71
2023/08/28 00:23:55;;;;;;;5.53;3.38;;;15.30;99.90;;;;;;4953940;29;20508;-71
2023/08/28 00:26:20;;;;;;;5.35;3.25;;;15.30;99.90;;;;;;4954335;29;20036;-71
2023/08/28 00:28:46;;;;;;;6.90;3.70;;;15.30;99.90;;;;;;4954256;28;20024;-69
2023/08/28 00:31:12;;;;;;;8.25;3.67;;;15.30;99.90;;;;;;4954256;29;20050;-70
2023/08/28 00:33:37;;;;;;;5.35;3.13;;;15.30;99.90;;;;;;4946554;29;20397;-71
2023/08/28 00:36:03;;;;;;;4.82;3.00;;;15.20;99.90;;;;;;4954160;29;20694;-71
2023/08/28 00:38:29;;;;;;;5.63;3.10;;;15.20;99.90;;;;;;4965327;28;20434;-71
2023/08/28 00:40:54;;;;;;;4.57;3.00;;;15.20;99.90;;;;;;4942577;28;20026;-70
2023/08/28 00:43:20;;;;;;;4.15;2.65;;;15.20;99.90;;;;;;4963654;28;20110;-69
2023/08/28 00:45:47;;;;;;;6.97;3.00;;;15.20;99.90;;;;;;4957753;28;20114;-71
2023/08/28 00:48:17;;;;;;;5.65;2.92;;;15.20;99.90;;;;;;4967178;28;20030;-71
2023/08/28 00:50:44;;;;;;;6.43;2.90;;;15.20;99.90;;;;;;4943882;28;20026;-71
2023/08/28 00:53:11;;;;;;;5.25;2.67;;;15.20;99.90;;;;;;4967212;28;20023;-70
2023/08/28 00:55:37;;;;;;;4.75;3.00;;;15.20;99.90;;;;;;4945032;28;20019;-69
2023/08/28 00:58:03;;;;;;;6.07;3.33;;;15.20;99.90;;;;;;4959292;28;20035;-71
2023/08/28 01:00:29;;;;;;;4.93;3.03;;;15.20;99.90;;;;;;4966330;28;20473;-71
2023/08/28 01:02:55;;;;;;;4.68;2.70;;;15.10;99.90;;;;;;4948606;28;20114;-71
2023/08/28 01:05:50;;;;;;;3.95;2.90;;;15.10;99.90;;;;;;4959541;28;20114;-71
2023/08/28 01:08:41;;;;;;;3.92;3.10;;;15.10;99.90;;;;;;4971917;28;20042;-70
2023/08/28 01:11:18;;;;;;;4.63;3.55;;;15.10;99.90;;;;;;4963866;28;20503;-71
2023/08/28 01:13:51;;;;;;;6.10;3.20;;;15.10;99.90;;;;;;4959343;28;20041;-70
2023/08/28 01:16:18;;;;;;;3.75;2.92;;;15.00;99.90;;;;;;4962685;28;20031;-71
2023/08/28 01:18:44;;;;;;;4.82;3.28;;;15.00;99.90;;;;;;4966753;28;20495;-71
2023/08/28 01:21:10;;;;;;;6.93;3.60;;;15.00;99.90;;;;;;4944997;28;20182;-70
2023/08/28 01:23:48;;;;;;;5.55;4.03;;;15.00;99.90;;;;;;4959028;28;20029;-71
2023/08/28 01:26:15;;;;;;;7.25;4.00;;;15.10;99.90;;;;;;4964323;28;20035;-71
2023/08/28 01:28:41;;;;;;;5.90;3.45;;;15.00;99.90;;;;;;4966703;28;20116;-71
2023/08/28 01:31:07;;;;;;;5.55;3.67;;;15.00;99.90;;;;;;4960411;28;20047;-71
2023/08/28 01:33:35;;;;;;;6.07;3.80;;;15.00;99.90;;;;;;4938939;28;20023;-71
2023/08/28 01:36:36;;;;;;;6.10;3.35;;;15.00;99.90;;;;;;4966120;28;20023;-71
2023/08/28 01:39:10;;;;;;;7.53;3.50;;;15.00;99.90;;;;;;4930133;29;20032;-71
2023/08/28 01:41:39;;;;;;;5.15;3.22;;;15.00;99.90;;;;;;4922465;29;20039;-71
2023/08/28 01:44:07;;;;;;;6.18;3.10;;;15.00;99.90;;;;;;4933508;29;20027;-71
2023/08/28 01:46:34;;;;;;;5.80;3.72;;;15.00;99.90;;;;;;4930124;29;20028;-71
2023/08/28 01:48:59;;;;;;;6.18;4.22;;;15.00;99.90;;;;;;4935818;29;20450;-71
2023/08/28 01:51:25;;;;;;;4.53;3.08;;;15.00;99.90;;;;;;4930285;29;20024;-71
2023/08/28 01:53:52;;;;;;;4.30;3.00;;;15.00;99.90;;;;;;4933334;29;20023;-71
2023/08/28 01:56:20;;;;;;;6.75;3.67;;;15.00;99.90;;;;;;4933878;29;20039;-71
2023/08/28 01:58:57;;;;;;;6.72;3.78;;;15.00;99.90;;;;;;4933550;29;20019;-71
2023/08/28 02:01:24;;;;;;;8.07;3.88;;;15.00;99.90;;;;;;4933775;29;20055;-71
2023/08/28 02:03:51;;;;;;;4.10;2.95;;;15.00;99.90;;;;;;4933153;29;20106;-71
2023/08/28 02:06:16;;;;;;;6.22;3.55;;;14.90;99.90;;;;;;4933384;29;20032;-71
2023/08/28 02:08:42;;;;;;;3.92;3.00;;;15.00;99.90;;;;;;4933254;29;20019;-71
2023/08/28 02:11:08;;;;;;;4.45;3.10;;;14.90;99.90;;;;;;4933687;29;20020;-71
2023/08/28 02:13:34;;;;;;;4.50;2.75;;;14.90;99.90;;;;;;4933112;29;20549;-70
2023/08/28 02:16:03;;;;;;;8.60;3.47;;;14.90;99.90;;;;;;4933341;29;20046;-71
2023/08/28 02:18:30;;;;;;;6.22;3.67;;;14.90;99.90;;;;;;4932496;29;20024;-71
2023/08/28 02:20:56;;;;;;;5.50;3.45;;;14.80;99.90;;;;;;4931996;29;20490;-71
2023/08/28 02:23:22;;;;;;;6.60;3.65;;;14.80;99.90;;;;;;4933068;29;20016;-71
2023/08/28 02:25:48;;;;;;;6.22;3.70;;;14.80;99.90;;;;;;4933258;29;20030;-71
2023/08/28 02:28:15;;;;;;;6.50;3.67;;;14.80;99.90;;;;;;4932793;29;20031;-71
2023/08/28 02:30:40;;;;;;;6.30;3.60;;;14.70;99.90;;;;;;4931675;29;20039;-70
2023/08/28 02:33:06;;;;;;;4.30;3.50;;;14.80;99.90;;;;;;4932798;29;20070;-70
2023/08/28 02:35:32;;;;;;;5.43;3.60;;;14.70;99.90;;;;;;4932894;29;20509;-70
2023/08/28 02:37:57;;;;;;;5.35;3.55;;;14.70;99.90;;;;;;4954235;28;20047;-70
2023/08/28 02:40:24;;;;;;;5.78;3.50;;;14.70;99.90;;;;;;4958433;28;20441;-71
2023/08/28 02:42:50;;;;;;;4.72;3.47;;;14.60;99.90;;;;;;4965702;28;20049;-71
2023/08/28 02:45:15;;;;;;;5.72;3.50;;;14.60;99.90;;;;;;4955659;28;20020;-71
2023/08/28 02:47:41;;;;;;;5.25;3.78;;;14.60;99.90;;;;;;4964679;28;20026;-71
2023/08/28 02:50:07;;;;;;;6.13;3.88;;;14.60;99.90;;;;;;4957639;28;20023;-71
2023/08/28 02:52:33;;;;;;;5.28;3.03;;;14.60;99.90;;;;;;4959825;28;20105;-71
2023/08/28 02:54:59;;;;;;;3.20;2.63;;;14.50;99.90;;;;;;4965389;28;20094;-71
2023/08/28 02:57:24;;;;;;;4.13;2.75;;;14.40;99.90;;;;;;4961310;28;20027;-71
2023/08/28 02:59:50;;;;;;;4.70;2.97;;;14.40;99.90;;;;;;4957145;28;20035;-71
2023/08/28 03:02:16;;;;;;;3.60;2.78;;;14.40;99.90;;;;;;4964323;28;20034;-71
2023/08/28 03:04:44;;;;;;;3.78;3.13;;;14.30;99.90;;;;;;4964443;28;20022;-71
2023/08/28 03:07:10;;;;;;;3.97;2.80;;;14.30;99.90;;;;;;4952293;28;20075;-71
2023/08/28 03:09:35;;;;;;;3.58;2.80;;;14.30;99.90;;;;;;4962925;28;20523;-71
2023/08/28 03:12:02;;;;;;;5.63;3.58;;;14.20;99.90;;;;;;4957824;28;20524;-71
2023/08/28 03:14:27;;;;;;;6.35;3.40;;;14.20;99.90;;;;;;4961546;28;20023;-71
2023/08/28 03:16:53;;;;;;;7.82;4.05;;;14.10;99.90;;;;;;4948140;28;20690;-71
2023/08/28 03:19:19;;;;;;;7.07;3.70;;;14.10;99.90;;;;;;4959384;28;20105;-71
2023/08/28 03:21:45;;;;;;;6.68;4.38;;;14.10;99.90;;;;;;4957852;28;20512;-71
2023/08/28 03:24:11;;;;;;;6.50;3.90;;;14.00;99.90;;;;;;4951287;28;20059;-71
2023/08/28 03:26:36;;;;;;;7.03;3.40;;;14.00;99.90;;;;;;4962997;28;20432;-71
2023/08/28 03:29:03;;;;;;;6.45;3.70;;;13.90;99.90;;;;;;4958530;28;20015;-71
2023/08/28 03:31:30;;;;;;;4.50;3.58;;;13.90;99.90;;;;;;4944599;29;20028;-71
2023/08/28 03:33:56;;;;;;;5.03;3.20;;;13.80;99.90;;;;;;4947748;28;20043;-71
2023/08/28 03:36:22;;;;;;;5.63;3.75;;;13.80;99.90;;;;;;4962217;28;20031;-71
2023/08/28 03:38:47;;;;;;;5.25;3.35;;;13.80;99.90;;;;;;4955177;28;20078;-70
2023/08/28 03:41:13;;;;;;;4.80;3.08;;;13.80;99.90;;;;;;4969154;28;20581;-71
2023/08/28 03:43:38;;;;;;;6.38;3.40;;;13.80;99.90;;;;;;4966688;28;20105;-71
2023/08/28 03:46:04;;;;;;;4.60;3.75;;;13.80;99.90;;;;;;4962487;28;20453;-71
2023/08/28 03:48:30;;;;;;;5.78;3.85;;;13.80;99.90;;;;;;4966742;28;20469;-71
2023/08/28 03:50:55;;;;;;;5.00;3.65;;;13.80;99.90;;;;;;4966988;28;20027;-70
2023/08/28 03:53:21;;;;;;;6.70;4.93;;;13.80;99.90;;;;;;4960308;28;20055;-70
2023/08/28 03:55:47;;;;;;;4.55;3.75;;;13.80;99.90;;;;;;4963368;28;20038;-71
2023/08/28 03:58:13;;;;;;;6.63;4.53;;;13.80;99.90;;;;;;4954753;29;20528;-70
2023/08/28 04:00:41;;;;;;;6.68;4.30;;;13.80;99.90;;;;;;4953526;28;20118;-70
2023/08/28 04:03:06;;;;;;;5.25;4.13;;;13.80;99.90;;;;;;4967115;28;20491;-71
2023/08/28 04:05:38;;;;;;;5.30;4.18;;;13.80;99.90;;;;;;4961082;28;20106;-71
2023/08/28 04:08:04;;;;;;;5.80;4.63;;;13.80;99.90;;;;;;4961156;28;20042;-71
2023/08/28 04:10:30;;;;;;;5.55;4.43;;;13.90;99.90;;;;;;4968110;28;20025;-71
2023/08/28 04:12:56;;;;;;;5.38;4.47;;;13.80;99.90;;;;;;4965726;28;20458;-71
2023/08/28 04:15:21;;;;;;;5.78;4.25;;;13.90;99.90;;;;;;4960214;28;20545;-70
2023/08/28 04:17:47;;;;;;;6.13;4.68;;;13.90;99.90;;;;;;4964967;28;20033;-71
2023/08/28 04:20:15;;;;;;;5.88;4.80;;;13.90;99.90;;;;;;4968023;28;20034;-70
2023/08/28 04:22:43;;;;;;;6.40;4.80;;;13.90;99.90;;;;;;4944276;28;20058;-71
2023/08/28 04:25:09;;;;;;;4.68;3.60;;;13.90;99.90;;;;;;4960078;28;20023;-71
2023/08/28 04:27:35;;;;;;;4.35;3.95;;;13.90;99.90;;;;;;4967969;28;20027;-71
2023/08/28 04:30:02;;;;;;;6.05;3.85;;;13.80;99.90;;;;;;4965779;28;20026;-70
2023/08/28 04:32:28;;;;;;;6.18;3.60;;;13.80;99.90;;;;;;4959938;28;20019;-70
2023/08/28 04:34:53;;;;;;;5.97;4.38;;;13.80;99.90;;;;;;4963603;28;20023;-71
2023/08/28 04:37:19;;;;;;;6.00;4.63;;;13.80;99.90;;;;;;4941467;29;20115;-71
2023/08/28 04:39:45;;;;;;;6.22;4.88;;;13.80;99.90;;;;;;4953262;28;20035;-71
2023/08/28 04:42:11;;;;;;;6.18;4.40;;;13.80;99.90;;;;;;4954309;28;20031;-71
2023/08/28 04:44:36;;;;;;;7.60;4.80;;;13.80;99.90;;;;;;4940066;29;20490;-70
2023/08/28 04:47:02;;;;;;;6.43;5.60;;;13.80;99.90;;;;;;4953034;29;20035;-71
2023/08/28 04:49:28;;;;;;;6.20;5.20;;;13.80;99.90;;;;;;4953309;29;20030;-71
2023/08/28 04:51:53;;;;;;;6.60;5.45;;;13.80;99.90;;;;;;4954158;28;20019;-71
2023/08/28 04:54:19;;;;;;;6.32;5.55;;;13.80;99.90;;;;;;4953451;28;20637;-71
2023/08/28 04:56:45;;;;;;;8.35;6.07;;;13.80;99.90;;;;;;4953361;29;20106;-70
2023/08/28 04:59:12;;;;;;;8.40;6.43;;;13.90;99.90;;;;;;4962194;28;20027;-71
2023/08/28 05:01:37;;;;;;;7.13;6.03;;;13.90;99.90;;;;;;4953565;28;20050;-71
2023/08/28 05:04:04;;;;;;;7.43;6.35;;;13.90;99.90;;;;;;4953114;28;20118;-71
2023/08/28 05:06:30;;;;;;;9.00;6.75;;;14.00;99.90;;;;;;4953475;28;20037;-71
2023/08/28 05:08:55;;;;;;;8.32;6.07;;;14.00;99.90;;;;;;4953030;29;20019;-71
2023/08/28 05:11:21;;;;;;;7.40;6.20;;;14.00;99.90;;;;;;4951989;28;20042;-71
2023/08/28 05:13:47;;;;;;;11.43;7.35;;;14.10;99.90;;;;;;4951225;29;20023;-70
2023/08/28 05:16:12;;;;;;;8.10;6.47;;;14.10;99.90;;;;;;4951405;29;20382;-71
2023/08/28 05:18:38;;;;;;;8.13;6.35;;;14.20;99.90;;;;;;4949608;29;20047;-70
2023/08/28 05:21:04;;;;;;;8.10;7.07;;;14.20;99.90;;;;;;4945239;28;20500;-71
2023/08/28 05:23:29;;;;;;;8.38;6.85;;;14.30;99.90;;;;;;4947330;29;20556;-71
2023/08/28 05:25:55;;;;;;;14.07;8.43;;;14.30;99.90;;;;;;4953995;28;20638;-71
2023/08/28 05:28:21;;;;;;;15.25;10.38;;;14.30;99.90;;;;;;4946683;29;20039;-71
2023/08/28 05:30:47;;;;;;;12.15;7.60;;;14.30;99.90;;;;;;4951474;28;20023;-70
2023/08/28 05:33:13;;;;;;;11.07;8.60;;;14.30;99.90;;;;;;4951575;29;20023;-71
2023/08/28 05:35:38;;;;;;;9.70;6.97;;;14.40;99.90;;;;;;4965082;28;20579;-71
2023/08/28 05:38:06;;;;;;;12.82;8.75;;;14.40;99.90;;;;;;4945589;29;20066;-70
2023/08/28 05:40:31;;;;;;;12.90;9.20;;;14.40;99.90;;;;;;4935168;29;20090;-70
2023/08/28 05:42:57;;;;;;;12.77;9.65;;;14.50;99.90;;;;;;4950159;29;20035;-71
2023/08/28 05:45:23;;;;;;;12.52;10.68;;;14.50;99.90;;;;;;4952631;29;20366;-70
2023/08/28 05:47:48;;;;;;;14.02;11.38;;;14.50;99.90;;;;;;4952745;29;20485;-70
2023/08/28 05:50:17;;;;;;;13.02;9.73;;;14.50;99.90;;;;;;4938424;29;20023;-71
2023/08/28 05:52:50;;;;;;;13.73;10.32;;;14.50;99.90;;;;;;4952150;28;20027;-71
2023/08/28 05:55:16;;;;;;;13.95;11.40;;;14.50;99.90;;;;;;4952291;29;20441;-71
2023/08/28 05:57:41;;;;;;;11.93;9.68;;;14.50;99.90;;;;;;4951810;29;20030;-70
2023/08/28 06:00:08;;;;;;;17.58;11.60;;;14.50;99.90;;;;;;4951179;29;20556;-71
2023/08/28 06:02:34;;;;;;;12.13;10.10;;;14.60;99.90;;;;;;4952043;29;20428;-71
2023/08/28 06:05:00;;;;;;;12.05;9.73;;;14.60;99.90;;;;;;4951202;28;20548;-71
2023/08/28 06:07:26;;;;;;;14.57;11.15;;;14.60;99.90;;;;;;4951322;29;20031;-71
2023/08/28 06:09:51;;;;;;;12.40;10.18;;;14.60;99.90;;;;;;4947147;29;20034;-70
2023/08/28 06:12:17;;;;;;;13.23;11.38;;;14.60;99.90;;;;;;4944442;29;20477;-71
2023/08/28 06:14:43;;;;;;;13.00;10.93;;;14.60;99.90;;;;;;4942355;29;20016;-71
2023/08/28 06:17:09;;;;;;;12.05;10.13;;;14.60;99.90;;;;;;4952289;29;20019;-70
2023/08/28 06:19:34;;;;;;;14.68;10.50;;;14.60;99.90;;;;;;4951711;29;20034;-70
2023/08/28 06:22:06;;;;;;;15.20;10.65;;;14.70;99.90;;;;;;4952283;29;20441;-71
2023/08/28 06:24:32;;;;;;;14.27;9.98;;;14.70;99.90;;;;;;4940937;29;20022;-71
2023/08/28 06:26:58;;;;;;;13.77;9.32;;;14.70;99.90;;;;;;4952170;29;20031;-71
2023/08/28 06:29:24;;;;;;;12.95;10.15;;;14.80;99.90;;;;;;4938354;29;20078;-71
2023/08/28 06:31:50;;;;;;;12.77;10.07;;;14.80;99.90;;;;;;4952403;29;20550;-72
2023/08/28 06:34:16;;;;;;;13.73;11.18;;;14.90;99.90;;;;;;4951585;29;20541;-72
2023/08/28 06:36:42;;;;;;;13.90;10.82;;;14.90;99.90;;;;;;4951703;29;20023;-71
2023/08/28 06:39:08;;;;;;;13.43;11.32;;;14.90;99.90;;;;;;4951852;29;20027;-71
2023/08/28 06:41:34;;;;;;;15.50;11.63;;;15.00;99.90;;;;;;4947516;29;20023;-71
2023/08/28 06:44:02;;;;;;;15.63;11.80;;;15.00;99.90;;;;;;4951384;29;20611;-72
2023/08/28 06:46:28;;;;;;;14.82;10.00;;;15.00;99.90;;;;;;4951733;29;20440;-71
2023/08/28 06:48:54;;;;;;;12.23;10.95;;;15.00;99.90;;;;;;4951472;29;20045;-71
2023/08/28 06:51:20;;;;;;;14.07;11.25;;;15.10;99.90;;;;;;4951975;28;20019;-71
2023/08/28 06:53:46;;;;;;;12.73;10.00;;;15.10;99.90;;;;;;4951488;28;20022;-71
2023/08/28 06:56:11;;;;;;;14.25;11.65;;;15.10;99.90;;;;;;4943119;29;20015;-71
2023/08/28 06:58:37;;;;;;;13.27;11.63;;;15.20;99.90;;;;;;4951294;29;20071;-71
2023/08/28 07:01:03;;;;;;;14.43;11.07;;;15.20;99.90;;;;;;4951918;29;20027;-71
2023/08/28 07:03:29;;;;;;;13.20;11.57;;;15.30;99.90;;;;;;4947741;28;20034;-71
2023/08/28 07:05:54;;;;;;;14.93;11.65;;;15.30;99.90;;;;;;4955531;29;20027;-71
2023/08/28 07:08:20;;;;;;;14.43;10.32;;;15.40;99.90;;;;;;4937551;29;20131;-71
2023/08/28 07:10:45;;;;;;;14.65;11.18;;;15.40;99.90;;;;;;4951034;29;20385;-71
2023/08/28 07:13:11;;;;;;;14.75;12.13;;;15.50;99.90;;;;;;4951118;29;20385;-71
2023/08/28 07:15:39;;;;;;;16.30;13.90;;;15.50;99.90;;;;;;4952115;29;20102;-72
2023/08/28 07:18:05;;;;;;;12.90;11.23;;;15.60;99.90;;;;;;4950132;28;20027;-72
2023/08/28 07:20:31;;;;;;;13.38;11.75;;;15.60;99.90;;;;;;4949362;29;20091;-72
2023/08/28 07:22:57;;;;;;;14.23;10.82;;;15.60;99.90;;;;;;4947573;29;20037;-72
2023/08/28 07:25:23;;;;;;;14.23;11.80;;;15.70;99.90;;;;;;4955161;29;20102;-72
2023/08/28 07:27:49;;;;;;;14.45;11.52;;;15.80;99.90;;;;;;4949107;29;20106;-72
2023/08/28 07:30:15;;;;;;;14.85;10.95;;;15.80;99.90;;;;;;4946616;29;20074;-72
2023/08/28 07:32:41;;;;;;;12.05;10.48;;;15.80;99.90;;;;;;4934147;29;20036;-72
2023/08/28 07:35:08;;;;;;;13.13;10.85;;;15.90;99.90;;;;;;4955772;28;20023;-72
2023/08/28 07:37:34;;;;;;;15.02;10.65;;;16.00;99.90;;;;;;4954776;29;20051;-71
2023/08/28 07:40:00;;;;;;;12.10;10.68;;;16.10;99.90;;;;;;4955948;29;20086;-72
2023/08/28 07:42:26;;;;;;;14.00;12.05;;;16.10;99.90;;;;;;4949814;28;20473;-72
2023/08/28 07:44:52;;;;;;;13.15;10.68;;;16.10;99.90;;;;;;4955583;29;20027;-72
2023/08/28 07:47:18;;;;;;;12.88;10.05;;;16.10;99.90;;;;;;4955958;29;20397;-72
2023/08/28 07:49:44;;;;;;;10.93;9.50;;;16.10;99.90;;;;;;4955483;29;20106;-72
2023/08/28 07:52:10;;;;;;;11.13;10.02;;;16.20;99.90;;;;;;4950136;28;20103;-71
2023/08/28 07:54:36;;;;;;;12.30;9.90;;;16.20;99.90;;;;;;4949237;29;20061;-71
2023/08/28 07:57:06;;;;;;;14.40;9.65;;;16.20;99.90;;;;;;4949614;29;20452;-72
2023/08/28 07:59:32;;;;;;;13.95;10.25;;;16.30;99.90;;;;;;4954581;29;20027;-71
2023/08/28 08:01:57;;;;;;;12.60;9.90;;;16.40;99.90;;;;;;4954645;29;20534;-72
2023/08/28 08:04:24;;;;;;;12.48;10.93;;;16.40;99.90;;;;;;4945719;29;20039;-72
2023/08/28 08:06:50;;;;;;;12.85;9.52;;;16.40;99.90;;;;;;4932929;29;20027;-72
2023/08/28 08:09:16;;;;;;;10.88;9.40;;;16.50;99.90;;;;;;4932058;29;20039;-72
2023/08/28 08:11:41;;;;;;;10.45;9.35;;;16.50;99.90;;;;;;4950045;29;20070;-72
2023/08/28 08:14:07;;;;;;;11.77;9.07;;;16.60;99.90;;;;;;4953740;28;20030;-71
2023/08/28 08:16:33;;;;;;;11.30;8.13;;;16.70;99.90;;;;;;4954053;29;20504;-72
2023/08/28 08:18:59;;;;;;;10.48;8.23;;;16.70;99.90;;;;;;4943069;29;20032;-72
2023/08/28 08:21:25;;;;;;;12.48;8.27;;;16.80;99.90;;;;;;4954063;28;20023;-72
2023/08/28 08:23:51;;;;;;;8.45;7.47;;;16.90;99.90;;;;;;4944590;28;20482;-72
2023/08/28 08:26:16;;;;;;;9.27;8.32;;;17.00;99.90;;;;;;4954221;29;20413;-72
2023/08/28 08:28:43;;;;;;;8.98;6.68;;;17.10;99.90;;;;;;4953999;29;20405;-72
2023/08/28 08:31:08;;;;;;;9.85;6.97;;;17.10;99.90;;;;;;4937273;29;20027;-72
2023/08/28 08:33:34;;;;;;;11.60;8.10;;;17.20;99.90;;;;;;4953850;29;20034;-71
2023/08/28 08:36:00;;;;;;;10.05;8.55;;;17.30;99.90;;;;;;4953745;29;20489;-72
2023/08/28 08:38:25;;;;;;;11.30;8.20;;;17.30;99.90;;;;;;4958122;28;20050;-72
2023/08/28 08:40:53;;;;;;;9.10;7.15;;;17.40;99.90;;;;;;4965546;28;20530;-72
2023/08/28 08:43:19;;;;;;;7.55;5.65;;;17.50;99.90;;;;;;4968940;28;20038;-72
2023/08/28 08:45:47;;;;;;;6.53;5.32;;;17.60;99.90;;;;;;4962321;28;20023;-72
2023/08/28 08:48:18;;;;;;;8.30;6.85;;;17.60;99.90;;;;;;4965466;28;20038;-72
2023/08/28 08:50:47;;;;;;;7.93;5.88;;;17.70;99.90;;;;;;4942011;29;20015;-72
2023/08/28 08:53:35;;;;;;;7.10;5.43;;;17.70;99.90;;;;;;4957980;28;20480;-71
2023/08/28 08:56:05;;;;;;;5.55;4.13;;;17.80;99.90;;;;;;4951233;28;20118;-72
2023/08/28 08:58:31;;;;;;;7.22;4.43;;;17.90;99.90;;;;;;4958298;28;20027;-72
2023/08/28 09:00:58;;;;;;;4.10;3.05;;;17.90;99.90;;;;;;4937848;29;20035;-72
2023/08/28 09:03:25;;;;;;;7.72;3.85;;;18.00;99.90;;;;;;4937197;29;20035;-72
2023/08/28 09:05:52;;;;;;;4.60;3.35;;;18.00;99.90;;;;;;4953335;28;20141;-72
2023/08/28 09:08:18;;;;;;;4.72;2.78;;;18.00;99.90;;;;;;4969061;28;20620;-72
2023/08/28 09:10:45;;;;;;;5.38;1.85;;;18.10;99.90;;;;;;4966490;28;20034;-71
2023/08/28 09:13:11;;;;;;;4.82;2.33;;;18.10;99.90;;;;;;4964904;28;20023;-72
2023/08/28 09:15:37;;;;;;;5.22;3.30;;;18.10;99.90;;;;;;4964933;28;20041;-72
2023/08/28 09:18:03;;;;;;;4.60;3.00;;;18.10;99.90;;;;;;4963092;28;20450;-72
2023/08/28 09:20:29;;;;;;;5.13;2.88;;;18.10;99.90;;;;;;4952761;28;20031;-72
2023/08/28 09:22:55;;;;;;;3.13;2.53;;;18.10;99.90;;;;;;4957180;28;20059;-72
2023/08/28 09:25:22;;;;;;;4.68;3.05;;;18.30;99.90;;;;;;4952505;28;20073;-72
2023/08/28 09:27:51;;;;;;;4.80;3.00;;;18.30;99.90;;;;;;4954467;28;20023;-72
2023/08/28 09:30:37;;;;;;;5.32;2.85;;;18.40;99.90;;;;;;4953883;28;20046;-72
2023/08/28 09:33:04;;;;;;;4.55;2.60;;;18.50;99.90;;;;;;4949610;28;20060;-72
2023/08/28 09:35:41;;;;;;;3.92;3.05;;;18.50;99.90;;;;;;4932941;29;20023;-72
2023/08/28 09:38:08;;;;;;;3.97;2.70;;;18.60;99.90;;;;;;4936001;29;20050;-72
2023/08/28 09:40:41;;;;;;;3.88;2.72;;;18.60;99.90;;;;;;4934756;29;20038;-72
2023/08/28 09:43:13;;;;;;;4.13;2.78;;;18.70;99.90;;;;;;4939838;29;20058;-72
2023/08/28 09:45:40;;;;;;;3.85;2.70;;;18.70;99.90;;;;;;4952219;29;20035;-71
2023/08/28 09:48:07;;;;;;;7.07;3.22;;;18.70;99.90;;;;;;4939625;29;20505;-72
2023/08/28 09:50:37;;;;;;;5.40;3.65;;;18.80;99.90;;;;;;4951319;29;20039;-72
2023/08/28 09:53:10;;;;;;;4.40;2.75;;;18.90;99.90;;;;;;4933291;29;20057;-72
2023/08/28 09:55:46;;;;;;;4.85;3.08;;;19.10;99.90;;;;;;4943620;29;20034;-72
2023/08/28 09:58:12;;;;;;;5.57;2.83;;;19.10;99.90;;;;;;4944757;29;20067;-71
2023/08/28 10:00:39;;;;;;;5.72;3.30;;;19.30;99.90;;;;;;4919780;29;20028;-71
2023/08/28 10:03:11;;;;;;;3.78;2.65;;;19.30;99.90;;;;;;4939621;29;20027;-71
2023/08/28 10:05:42;;;;;;;5.70;2.65;;;19.40;99.90;;;;;;4941996;29;20509;-72
2023/08/28 10:08:09;;;;;;;3.08;2.15;;;19.50;99.90;;;;;;4943456;29;20029;-72
2023/08/28 10:10:35;;;;;;;4.68;3.17;;;19.60;99.90;;;;;;4938695;29;20057;-72
2023/08/28 10:13:04;;;;;;;4.07;2.30;;;19.60;99.90;;;;;;4949170;29;20386;-72
2023/08/28 10:15:33;;;;;;;3.55;2.63;;;19.70;99.90;;;;;;4951274;29;20016;-72
2023/08/28 10:18:05;;;;;;;4.22;2.05;;;19.80;99.90;;;;;;4945450;29;20035;-72
2023/08/28 10:20:31;;;;;;;3.75;2.55;;;19.90;99.90;;;;;;4943703;29;20041;-71
2023/08/28 10:22:58;;;;;;;5.70;1.90;;;20.00;99.90;;;;;;4944521;29;20032;-72
2023/08/28 10:25:26;;;;;;;2.35;1.70;;;20.00;99.90;;;;;;4930610;29;20031;-72
2023/08/28 10:27:53;;;;;;;1.60;1.40;;;20.00;99.90;;;;;;4944545;29;20027;-72
2023/08/28 10:30:21;;;;;;;2.05;1.20;;;20.00;99.90;;;;;;4927456;29;20061;-72
2023/08/28 10:32:49;;;;;;;2.20;1.30;;;20.00;99.90;;;;;;4951204;29;20027;-71
2023/08/28 10:35:16;;;;;;;2.60;1.60;;;20.00;99.90;;;;;;4941594;28;20036;-72
2023/08/28 10:37:43;;;;;;;2.53;1.38;;;20.00;99.90;;;;;;4936772;28;20058;-72
2023/08/28 10:40:11;;;;;;;3.20;1.15;;;20.10;99.90;;;;;;4951650;28;20059;-72
2023/08/28 10:42:38;;;;;;;1.35;1.23;;;20.10;99.90;;;;;;4949898;28;20094;-72
2023/08/28 10:45:04;;;;;;;3.70;1.85;;;20.20;99.90;;;;;;4950906;28;20031;-72
2023/08/28 10:47:30;;;;;;;2.33;1.40;;;20.20;99.90;;;;;;4946806;28;20034;-72
2023/08/28 10:49:57;;;;;;;2.08;1.40;;;20.30;99.90;;;;;;4961024;28;20305;-72
2023/08/28 10:52:23;;;;;;;1.48;1.10;;;20.40;99.90;;;;;;4954845;28;20024;-71
2023/08/28 10:54:50;;;;;;;2.83;1.58;;;20.40;99.90;;;;;;4950470;28;20042;-72
2023/08/28 10:57:26;;;;;;;3.10;1.45;;;20.50;99.90;;;;;;4945689;28;20549;-72
2023/08/28 10:59:53;;;;;;;4.13;1.52;;;20.50;99.90;;;;;;4936818;28;20027;-72
2023/08/28 11:02:19;;;;;;;1.83;1.40;;;20.60;99.90;;;;;;4934126;28;20044;-72
2023/08/28 11:04:45;;;;;;;1.70;1.27;;;20.70;99.90;;;;;;4936266;28;20450;-72
2023/08/28 11:07:27;;;;;;;3.03;1.40;;;20.70;99.90;;;;;;4970099;28;20033;-72
2023/08/28 11:10:25;;;;;;;3.72;1.50;;;20.90;99.90;;;;;;4946576;28;20096;-72
2023/08/28 11:13:05;;;;;;;2.47;1.58;;;20.90;99.90;;;;;;4955770;28;20018;-72
2023/08/28 11:15:39;;;;;;;2.70;1.38;;;20.90;99.90;;;;;;4959978;28;20038;-72
2023/08/28 11:18:29;;;;;;;4.80;1.80;;;20.90;99.90;;;;;;4963776;28;20023;-72
2023/08/28 11:21:00;;;;;;;2.00;1.50;;;21.00;99.90;;;;;;4941613;28;20030;-72
2023/08/28 11:23:34;;;;;;;2.20;1.55;;;21.00;99.90;;;;;;4934792;28;20019;-72
2023/08/28 11:26:10;;;;;;;2.35;1.67;;;21.10;99.90;;;;;;4962643;28;20165;-72
2023/08/28 11:28:47;;;;;;;2.22;1.50;;;21.20;99.90;;;;;;4957276;28;20023;-71
2023/08/28 11:31:13;;;;;;;3.03;1.50;;;21.30;99.90;;;;;;4952008;28;20099;-72
2023/08/28 11:33:59;;;;;;;2.67;1.52;;;21.30;99.90;;;;;;4954809;28;20043;-72
2023/08/28 11:36:25;;;;;;;1.92;1.20;;;21.40;99.90;;;;;;4952498;28;20034;-72
2023/08/28 11:38:55;;;;;;;3.40;1.20;;;21.40;99.90;;;;;;4963962;28;20059;-72
2023/08/28 11:41:23;;;;;;;3.60;1.50;;;21.50;99.90;;;;;;4968619;28;20022;-72
2023/08/28 11:43:49;;;;;;;3.60;1.75;;;21.50;99.90;;;;;;4958320;28;20564;-71
2023/08/28 11:46:17;;;;;;;3.05;1.50;;;21.50;99.90;;;;;;4966830;28;20485;-72
2023/08/28 11:48:49;;;;;;;4.13;1.75;;;21.60;99.90;;;;;;4966263;28;20110;-71
2023/08/28 11:51:14;;;;;;;2.72;1.48;;;21.70;99.90;;;;;;4966509;28;20038;-71
2023/08/28 11:53:42;;;;;;;2.25;1.25;;;21.70;99.90;;;;;;4967459;28;20159;-72
2023/08/28 11:56:10;;;;;;;2.53;1.10;;;21.70;99.90;;;;;;4963993;28;20024;-72
2023/08/28 11:58:39;;;;;;;2.42;1.10;;;21.80;99.90;;;;;;4962862;28;20561;-72
2023/08/28 12:01:07;;;;;;;1.98;1.00;;;21.80;99.90;;;;;;4956459;28;20094;-72
2023/08/28 12:03:37;;;;;;;1.25;1.05;;;21.90;99.90;;;;;;4961629;28;20042;-72
2023/08/28 12:06:14;;;;;;;1.38;0.88;;;22.00;99.90;;;;;;4957999;28;20037;-72
2023/08/28 12:08:42;;;;;;;1.88;0.88;;;22.00;99.90;;;;;;4956377;28;20027;-71
2023/08/28 12:11:09;;;;;;;2.55;1.10;;;22.00;99.90;;;;;;4964520;28;20015;-72
2023/08/28 12:13:36;;;;;;;2.58;1.15;;;22.00;99.90;;;;;;4964825;28;20923;-72
2023/08/28 12:16:17;;;;;;;3.25;1.48;;;22.00;99.90;;;;;;4961333;28;20093;-72
2023/08/28 12:19:01;;;;;;;1.65;1.10;;;22.00;99.90;;;;;;4962520;28;20057;-72
2023/08/28 12:21:38;;;;;;;1.27;0.90;;;22.00;99.90;;;;;;4960628;28;20026;-72
2023/08/28 12:24:07;;;;;;;2.13;0.70;;;22.00;99.90;;;;;;4958046;28;20476;-72
2023/08/28 12:26:33;;;;;;;1.92;0.80;;;22.00;99.90;;;;;;4949028;28;20023;-72
2023/08/28 12:28:59;;;;;;;0.80;0.55;;;22.00;99.90;;;;;;4958627;28;20110;-72
2023/08/28 12:31:26;;;;;;;2.15;0.80;;;22.00;99.90;;;;;;4956714;28;20376;-72
2023/08/28 12:33:52;;;;;;;1.10;0.65;;;22.00;99.90;;;;;;4943569;28;20028;-72
2023/08/28 12:36:18;;;;;;;1.25;0.90;;;22.00;99.90;;;;;;4973233;28;20030;-72
2023/08/28 12:38:54;;;;;;;1.73;0.90;;;21.90;99.90;;;;;;4971535;28;20051;-72
2023/08/28 12:41:19;;;;;;;1.33;0.70;;;21.90;99.90;;;;;;4958529;28;20070;-72
2023/08/28 12:43:48;;;;;;;1.15;0.70;;;21.90;99.90;;;;;;4966883;28;20023;-71
2023/08/28 12:46:17;;;;;;;1.35;0.90;;;22.00;99.90;;;;;;4958508;28;20105;-72